Time;durP1;ratioP1;P1;durP2;ratioP2;P2;SDS_P1;SDS_P2;PMS_P1;PMS_P2;Temp;Humidity;BMP_temperature;BMP_pressure;BME280_temperature;BME280_humidity;BME280_pressure;Samples;Min_cycle;Max_cycle;Signal;HPM_P1;HPM_P2
2022/10/03 00:03:35;;;;;;;7.07;2.30;;;9.30;99.90;;;;;;8360349;28;20208;-67
2022/10/03 00:08:18;;;;;;;12.63;3.73;;;9.20;99.90;;;;;;8361314;28;20198;-69
2022/10/03 00:12:41;;;;;;;8.67;2.60;;;9.20;99.90;;;;;;8363632;28;20299;-67
2022/10/03 00:16:57;;;;;;;6.70;2.60;;;9.20;99.90;;;;;;8360881;28;20177;-67
2022/10/03 00:21:20;;;;;;;9.57;2.40;;;9.20;99.90;;;;;;8346385;28;20216;-68
2022/10/03 00:25:27;;;;;;;12.83;2.97;;;9.20;99.90;;;;;;8373882;28;20185;-67
2022/10/03 00:29:34;;;;;;;8.37;3.10;;;9.20;99.90;;;;;;8363251;28;20182;-67
2022/10/03 00:33:57;;;;;;;10.10;3.47;;;9.20;99.90;;;;;;8383448;28;20217;-66
2022/10/03 00:38:27;;;;;;;9.77;3.27;;;9.40;99.90;;;;;;8364275;28;20177;-70
2022/10/03 00:43:02;;;;;;;5.80;2.80;;;9.50;99.90;;;;;;8366775;28;20181;-67
2022/10/03 00:47:21;;;;;;;6.87;2.80;;;9.50;99.90;;;;;;8367422;28;20181;-68
2022/10/03 00:51:44;;;;;;;11.77;3.20;;;9.70;99.90;;;;;;8360429;28;20197;-67
2022/10/03 00:55:52;;;;;;;9.73;3.53;;;9.70;99.90;;;;;;8363768;28;20253;-67
2022/10/03 01:00:14;;;;;;;17.77;4.50;;;9.70;99.90;;;;;;8365018;28;20242;-67
2022/10/03 01:04:35;;;;;;;9.97;3.60;;;9.80;99.90;;;;;;8366223;28;20190;-68
2022/10/03 01:08:56;;;;;;;10.83;3.77;;;9.90;99.90;;;;;;8366998;28;20201;-68
2022/10/03 01:13:16;;;;;;;11.67;3.80;;;9.90;99.90;;;;;;8364551;28;20225;-68
2022/10/03 01:18:00;;;;;;;9.03;3.43;;;10.00;99.90;;;;;;8357752;28;20187;-67
2022/10/03 01:22:22;;;;;;;9.97;3.50;;;10.00;99.90;;;;;;8360122;28;20298;-68
2022/10/03 01:26:45;;;;;;;7.53;3.60;;;10.00;99.90;;;;;;8367232;28;20192;-68
2022/10/03 01:30:51;;;;;;;9.63;3.40;;;10.00;99.90;;;;;;8363680;28;20276;-68
2022/10/03 01:35:16;;;;;;;12.60;3.83;;;10.00;99.90;;;;;;8365062;28;20207;-68
2022/10/03 01:39:39;;;;;;;18.87;4.63;;;10.10;99.90;;;;;;8368684;28;20230;-68
2022/10/03 01:44:11;;;;;;;10.13;3.83;;;10.10;99.90;;;;;;8371209;28;20195;-68
2022/10/03 01:48:29;;;;;;;7.60;3.60;;;10.10;99.90;;;;;;8361606;28;20188;-67
2022/10/03 01:52:48;;;;;;;9.97;3.70;;;10.20;99.90;;;;;;8358876;28;20202;-67
2022/10/03 01:57:27;;;;;;;10.07;3.73;;;10.20;99.90;;;;;;8376539;28;20188;-68
2022/10/03 02:01:37;;;;;;;12.73;3.57;;;10.20;99.90;;;;;;8364600;28;20223;-68
2022/10/03 02:05:59;;;;;;;13.27;3.63;;;10.20;99.90;;;;;;8357841;28;20202;-69
2022/10/03 02:10:23;;;;;;;17.43;3.93;;;10.20;99.90;;;;;;8364719;28;20182;-70
2022/10/03 02:14:33;;;;;;;11.73;4.33;;;10.30;99.90;;;;;;8363980;28;20205;-68
2022/10/03 02:18:46;;;;;;;12.93;4.73;;;10.30;99.90;;;;;;8363312;28;20207;-67
2022/10/03 02:22:52;;;;;;;8.77;3.80;;;10.30;99.90;;;;;;8356478;28;20194;-68
2022/10/03 02:27:17;;;;;;;12.60;4.20;;;10.30;99.90;;;;;;8378506;28;20191;-67
2022/10/03 02:31:43;;;;;;;10.97;4.77;;;10.30;99.90;;;;;;8365066;28;20196;-69
2022/10/03 02:36:12;;;;;;;11.00;3.80;;;10.30;99.90;;;;;;8359788;28;20212;-69
2022/10/03 02:40:32;;;;;;;15.07;4.10;;;10.30;99.90;;;;;;8358794;28;20189;-67
2022/10/03 02:45:10;;;;;;;13.23;4.03;;;10.30;99.90;;;;;;8373477;28;20189;-68
2022/10/03 02:49:32;;;;;;;13.87;4.40;;;10.40;99.90;;;;;;8362916;28;20186;-68
2022/10/03 02:53:50;;;;;;;7.97;3.47;;;10.30;99.90;;;;;;8373938;28;20217;-68
2022/10/03 02:58:11;;;;;;;14.10;3.97;;;10.30;99.90;;;;;;8361559;28;20209;-68
2022/10/03 03:02:49;;;;;;;9.63;4.00;;;10.30;99.90;;;;;;8362120;28;20226;-67
2022/10/03 03:07:09;;;;;;;9.67;3.70;;;10.30;99.90;;;;;;8367151;28;20179;-69
2022/10/03 03:11:46;;;;;;;8.40;4.03;;;10.30;99.90;;;;;;8362020;28;20216;-68
2022/10/03 03:16:14;;;;;;;10.17;3.93;;;10.30;99.90;;;;;;8373175;28;20257;-67
2022/10/03 03:20:16;;;;;;;10.43;4.87;;;10.40;99.90;;;;;;8354595;28;20210;-69
2022/10/03 03:24:28;;;;;;;14.97;4.20;;;10.30;99.90;;;;;;8347349;28;20191;-69
2022/10/03 03:28:53;;;;;;;15.20;3.93;;;10.30;99.90;;;;;;8357055;28;20180;-68
2022/10/03 03:33:06;;;;;;;9.57;3.47;;;10.30;99.90;;;;;;8360134;28;20205;-68
2022/10/03 03:37:29;;;;;;;12.23;3.50;;;10.40;99.90;;;;;;8363992;28;20197;-67
2022/10/03 03:41:45;;;;;;;15.40;3.70;;;10.40;99.90;;;;;;8359575;28;20212;-68
2022/10/03 03:46:05;;;;;;;10.37;2.97;;;10.40;99.90;;;;;;8356586;28;20275;-69
2022/10/03 03:50:31;;;;;;;9.10;3.40;;;10.40;99.90;;;;;;8366539;28;20263;-68
2022/10/03 03:54:39;;;;;;;6.53;3.17;;;10.40;99.90;;;;;;8348738;28;20210;-69
2022/10/03 03:59:11;;;;;;;11.50;3.03;;;10.40;99.90;;;;;;8374113;28;20191;-68
2022/10/03 04:03:33;;;;;;;13.87;4.07;;;10.30;99.90;;;;;;8352550;28;20197;-69
2022/10/03 04:08:01;;;;;;;8.63;3.37;;;10.40;99.90;;;;;;8364261;28;20203;-70
2022/10/03 04:12:24;;;;;;;4.27;2.23;;;10.30;99.90;;;;;;8355636;28;20290;-68
2022/10/03 04:21:29;;;;;;;10.23;2.50;;;10.40;99.90;;;;;;8360188;28;20323;-69
2022/10/03 04:25:45;;;;;;;12.17;2.87;;;10.30;99.90;;;;;;8359373;28;20197;-69
2022/10/03 04:30:04;;;;;;;9.33;2.77;;;10.30;99.90;;;;;;8358457;28;20186;-69
2022/10/03 04:34:20;;;;;;;11.50;2.60;;;10.30;99.90;;;;;;8359122;28;20294;-70
2022/10/03 04:38:36;;;;;;;7.73;2.70;;;10.30;99.90;;;;;;8361998;28;20204;-69
2022/10/03 04:42:56;;;;;;;7.40;2.57;;;10.20;99.90;;;;;;8361260;28;20638;-69
2022/10/03 04:47:14;;;;;;;6.07;2.73;;;10.20;99.90;;;;;;8350126;28;20202;-69
2022/10/03 04:51:19;;;;;;;10.70;2.50;;;10.20;99.90;;;;;;8359482;28;20188;-68
2022/10/03 04:55:34;;;;;;;8.00;2.20;;;10.20;99.90;;;;;;8363676;28;20215;-68
2022/10/03 04:59:54;;;;;;;6.73;2.73;;;10.10;99.90;;;;;;8361905;28;20176;-68
2022/10/03 05:04:29;;;;;;;8.27;2.70;;;10.10;99.90;;;;;;8361236;28;20205;-68
2022/10/03 05:08:48;;;;;;;10.37;2.60;;;10.10;99.90;;;;;;8349047;28;20183;-68
2022/10/03 05:13:17;;;;;;;7.00;2.53;;;10.10;99.90;;;;;;8374304;28;20232;-68
2022/10/03 05:17:29;;;;;;;5.13;1.90;;;10.20;99.90;;;;;;8364302;28;20175;-68
2022/10/03 05:21:44;;;;;;;10.00;2.57;;;10.20;99.90;;;;;;8361375;28;20179;-68
2022/10/03 05:25:54;;;;;;;10.77;2.67;;;10.20;99.90;;;;;;8361255;28;20192;-69
2022/10/03 05:30:15;;;;;;;7.93;2.27;;;10.10;99.90;;;;;;8354442;28;20243;-68
2022/10/03 05:34:22;;;;;;;12.13;3.03;;;10.10;99.90;;;;;;8361540;28;20212;-68
2022/10/03 05:38:39;;;;;;;7.57;2.20;;;10.10;99.90;;;;;;8368492;28;20339;-68
2022/10/03 05:42:57;;;;;;;11.07;2.13;;;10.10;99.90;;;;;;8365042;28;20186;-69
2022/10/03 05:47:02;;;;;;;8.87;2.23;;;10.10;99.90;;;;;;8364963;28;20239;-67
2022/10/03 05:51:32;;;;;;;8.40;2.37;;;10.20;99.90;;;;;;8360485;28;20205;-68
2022/10/03 05:55:56;;;;;;;6.20;2.33;;;10.20;99.90;;;;;;8369607;28;20217;-68
2022/10/03 06:00:18;;;;;;;8.50;2.03;;;10.30;99.90;;;;;;8370771;28;20178;-67
2022/10/03 06:04:52;;;;;;;11.47;2.73;;;10.30;99.90;;;;;;8352962;28;20235;-68
2022/10/03 06:09:11;;;;;;;11.10;2.30;;;10.30;99.90;;;;;;8341159;28;20428;-69
2022/10/03 06:13:25;;;;;;;7.63;2.03;;;10.30;99.90;;;;;;8360590;28;20293;-67
2022/10/03 06:17:43;;;;;;;6.33;1.67;;;10.30;99.90;;;;;;8381861;28;20190;-71
2022/10/03 06:22:05;;;;;;;7.33;1.70;;;10.40;99.90;;;;;;8372754;28;20186;-68
2022/10/03 06:26:41;;;;;;;10.77;2.10;;;10.50;99.90;;;;;;8366690;28;20207;-68
2022/10/03 06:31:07;;;;;;;7.93;2.23;;;10.60;99.90;;;;;;8352073;28;20183;-69
2022/10/03 06:35:56;;;;;;;6.10;1.87;;;10.60;99.90;;;;;;8368122;28;20206;-68
2022/10/03 06:40:18;;;;;;;9.33;1.90;;;10.60;99.90;;;;;;8355704;28;20167;-67
2022/10/03 06:44:58;;;;;;;7.70;1.93;;;10.60;99.90;;;;;;8364558;28;20277;-66
2022/10/03 06:49:11;;;;;;;8.83;2.10;;;10.50;99.90;;;;;;8347052;28;20186;-70
2022/10/03 06:53:20;;;;;;;6.23;1.93;;;10.50;99.90;;;;;;8360681;28;20203;-69
2022/10/03 06:57:21;;;;;;;7.13;2.13;;;10.50;99.90;;;;;;8357615;28;20181;-67
2022/10/03 07:01:45;;;;;;;9.10;2.23;;;10.50;99.90;;;;;;8359366;28;20196;-68
2022/10/03 07:06:00;;;;;;;9.63;2.07;;;10.60;99.90;;;;;;8356055;28;20188;-70
2022/10/03 07:10:19;;;;;;;4.90;1.93;;;10.60;99.90;;;;;;8365667;28;20193;-69
2022/10/03 07:14:51;;;;;;;6.90;1.90;;;10.60;99.90;;;;;;8348759;28;20273;-68
2022/10/03 07:19:24;;;;;;;5.70;1.50;;;10.70;99.90;;;;;;8356354;28;20276;-68
2022/10/03 07:24:01;;;;;;;4.43;1.70;;;10.80;99.90;;;;;;8351891;28;20182;-68
2022/10/03 07:28:47;;;;;;;3.80;1.50;;;11.00;99.90;;;;;;8353093;28;20200;-68
2022/10/03 07:32:50;;;;;;;5.13;1.80;;;11.00;99.90;;;;;;8350032;28;20234;-70
2022/10/03 07:41:24;;;;;;;3.73;1.73;;;11.00;99.90;;;;;;8356544;28;20225;-68
2022/10/03 07:45:36;;;;;;;11.10;1.90;;;11.00;99.90;;;;;;8359543;28;20272;-68
2022/10/03 07:49:55;;;;;;;6.20;2.00;;;11.00;99.90;;;;;;8355748;28;20264;-67
2022/10/03 07:54:14;;;;;;;8.63;2.10;;;10.90;99.90;;;;;;8379001;28;20265;-67
2022/10/03 07:58:37;;;;;;;7.23;1.97;;;10.90;99.90;;;;;;8348325;28;20258;-67
2022/10/03 08:03:03;;;;;;;7.90;2.40;;;11.00;99.90;;;;;;8358048;28;20211;-68
2022/10/03 08:07:38;;;;;;;10.10;2.10;;;11.20;99.90;;;;;;8359777;28;20201;-67
2022/10/03 08:12:00;;;;;;;7.00;2.10;;;11.20;99.90;;;;;;8357897;28;20310;-68
2022/10/03 08:16:30;;;;;;;9.10;2.40;;;11.10;99.90;;;;;;8358856;28;20199;-68
2022/10/03 08:21:02;;;;;;;9.67;2.60;;;10.90;99.90;;;;;;8355260;28;20224;-67
2022/10/03 08:25:41;;;;;;;6.10;2.30;;;10.90;99.90;;;;;;8364741;28;20282;-68
2022/10/03 08:29:44;;;;;;;6.27;2.10;;;10.80;99.90;;;;;;8363124;28;20191;-68
2022/10/03 08:34:07;;;;;;;6.93;1.90;;;10.80;99.90;;;;;;8354107;28;20211;-67
2022/10/03 08:38:50;;;;;;;8.27;2.30;;;10.90;99.90;;;;;;8372163;28;20192;-69
2022/10/03 08:43:21;;;;;;;4.63;1.60;;;11.00;99.90;;;;;;8346620;28;20183;-68
2022/10/03 08:47:38;;;;;;;5.70;2.17;;;11.20;99.90;;;;;;8354108;28;20207;-68
2022/10/03 08:52:00;;;;;;;7.67;2.00;;;11.20;99.90;;;;;;8361022;28;20211;-69
2022/10/03 08:56:21;;;;;;;5.73;2.03;;;11.20;99.90;;;;;;8368754;28;20235;-69
2022/10/03 09:01:00;;;;;;;7.50;1.70;;;11.50;99.90;;;;;;8366279;28;20193;-69
2022/10/03 09:05:13;;;;;;;4.50;1.60;;;11.80;99.90;;;;;;8352469;28;20297;-68
2022/10/03 09:09:52;;;;;;;4.27;1.40;;;12.30;99.90;;;;;;8367460;28;20217;-69
2022/10/03 09:14:30;;;;;;;3.53;1.20;;;12.10;99.90;;;;;;8272351;28;20300;-69
2022/10/03 09:18:44;;;;;;;2.83;1.20;;;12.00;99.90;;;;;;8370467;28;20204;-66
2022/10/03 09:23:04;;;;;;;6.47;1.40;;;11.90;99.90;;;;;;8361667;28;20192;-68
2022/10/03 09:27:30;;;;;;;5.40;1.60;;;11.90;99.90;;;;;;8359252;28;20205;-70
2022/10/03 09:32:01;;;;;;;4.97;1.77;;;12.10;99.90;;;;;;8351390;28;20216;-67
2022/10/03 09:36:19;;;;;;;8.37;1.70;;;12.00;99.90;;;;;;8363837;28;20233;-68
2022/10/03 09:40:32;;;;;;;4.93;1.53;;;12.10;99.90;;;;;;8353619;28;20517;-69
2022/10/03 09:44:42;;;;;;;8.73;1.80;;;12.10;99.90;;;;;;8357597;28;20205;-68
2022/10/03 09:49:24;;;;;;;8.13;1.70;;;12.00;99.90;;;;;;8358719;28;20189;-67
2022/10/03 09:53:37;;;;;;;6.70;1.90;;;11.90;99.90;;;;;;8353370;28;20249;-69
2022/10/03 09:57:41;;;;;;;6.20;1.83;;;11.90;99.90;;;;;;8360236;28;20182;-67
2022/10/03 10:02:03;;;;;;;4.80;1.60;;;11.90;99.90;;;;;;8361334;28;20204;-68
2022/10/03 10:06:13;;;;;;;3.57;1.27;;;11.90;99.90;;;;;;8359647;28;20193;-67
2022/10/03 10:10:42;;;;;;;5.43;1.80;;;11.90;99.90;;;;;;8362749;28;20189;-69
2022/10/03 10:15:13;;;;;;;7.33;1.60;;;11.80;99.90;;;;;;8361136;28;20221;-67
2022/10/03 10:19:50;;;;;;;5.97;1.63;;;11.80;99.90;;;;;;8349974;28;20213;-67
2022/10/03 10:24:26;;;;;;;8.27;1.90;;;11.70;99.90;;;;;;8356072;28;20224;-68
2022/10/03 10:29:22;;;;;;;3.97;1.20;;;11.80;99.90;;;;;;8358718;28;20177;-67
2022/10/03 10:34:03;;;;;;;9.23;1.37;;;11.90;99.90;;;;;;8288599;28;20309;-69
2022/10/03 10:38:26;;;;;;;5.50;1.47;;;12.00;99.90;;;;;;8353991;28;20181;-68
2022/10/03 10:42:46;;;;;;;7.97;2.07;;;12.00;99.90;;;;;;8372988;28;20181;-69
2022/10/03 10:46:49;;;;;;;5.57;1.67;;;11.90;99.90;;;;;;8359859;28;20315;-68
2022/10/03 10:51:04;;;;;;;2.83;1.30;;;11.90;99.90;;;;;;8360427;28;20259;-68
2022/10/03 10:55:35;;;;;;;5.70;1.60;;;11.90;99.90;;;;;;8378626;28;20201;-68
2022/10/03 11:00:06;;;;;;;8.10;2.20;;;11.80;99.90;;;;;;8363868;28;20178;-68
2022/10/03 11:04:28;;;;;;;7.73;1.87;;;11.80;99.90;;;;;;8355673;28;20193;-68
2022/10/03 11:08:53;;;;;;;9.37;1.60;;;11.90;99.90;;;;;;8377032;28;20211;-68
2022/10/03 11:13:45;;;;;;;4.67;2.00;;;12.20;99.90;;;;;;8360698;28;20209;-68
2022/10/03 11:18:29;;;;;;;8.93;2.10;;;12.20;99.90;;;;;;8371205;28;20174;-67
2022/10/03 11:22:51;;;;;;;9.03;1.80;;;11.90;99.90;;;;;;8356898;28;20177;-68
2022/10/03 11:27:38;;;;;;;7.50;2.00;;;11.80;99.90;;;;;;8372414;28;20268;-67
2022/10/03 11:32:01;;;;;;;5.50;1.97;;;12.10;99.90;;;;;;8341051;28;20293;-69
2022/10/03 11:36:31;;;;;;;5.60;1.40;;;12.00;99.90;;;;;;8356932;28;20223;-69
2022/10/03 11:40:43;;;;;;;5.17;2.00;;;12.00;99.90;;;;;;8354636;28;20174;-68
2022/10/03 11:45:05;;;;;;;9.83;1.87;;;12.30;99.90;;;;;;8353268;28;20187;-68
2022/10/03 11:49:34;;;;;;;5.13;2.20;;;12.50;99.90;;;;;;8359510;28;20206;-69
2022/10/03 11:53:48;;;;;;;8.17;1.50;;;12.60;99.90;;;;;;8359063;28;20216;-68
2022/10/03 11:58:07;;;;;;;4.77;1.57;;;12.50;99.90;;;;;;8357107;28;20185;-69
2022/10/03 12:02:14;;;;;;;7.53;1.50;;;12.50;99.90;;;;;;8359483;28;20201;-69
2022/10/03 12:11:19;;;;;;;8.47;1.80;;;12.60;99.90;;;;;;8358988;28;20290;-69
2022/10/03 12:15:31;;;;;;;9.40;1.40;;;12.80;99.90;;;;;;8353865;28;20213;-68
2022/10/03 12:20:01;;;;;;;6.27;1.57;;;12.80;99.90;;;;;;8372894;28;20240;-68
2022/10/03 12:24:33;;;;;;;8.10;1.53;;;13.00;99.90;;;;;;8353290;28;20193;-69
2022/10/03 12:28:43;;;;;;;8.97;2.40;;;13.30;99.90;;;;;;8356884;28;20191;-68
2022/10/03 12:33:11;;;;;;;5.87;1.70;;;13.30;99.90;;;;;;8352531;28;20211;-68
2022/10/03 12:37:53;;;;;;;6.03;1.80;;;13.00;99.90;;;;;;8365725;28;20213;-68
2022/10/03 12:42:03;;;;;;;7.27;1.87;;;12.90;99.90;;;;;;8349885;28;20246;-69
2022/10/03 12:46:30;;;;;;;5.93;1.63;;;13.00;99.90;;;;;;8357947;28;20461;-68
2022/10/03 12:50:41;;;;;;;4.97;1.30;;;13.30;99.90;;;;;;8347756;28;20184;-69
2022/10/03 12:55:04;;;;;;;5.67;1.53;;;13.30;99.90;;;;;;8355140;28;20259;-69
2022/10/03 12:59:23;;;;;;;7.77;1.67;;;13.60;99.90;;;;;;8358242;28;20177;-68
2022/10/03 13:03:39;;;;;;;5.33;1.10;;;13.70;99.90;;;;;;8362529;28;20198;-68
2022/10/03 13:07:51;;;;;;;5.53;1.20;;;13.80;99.90;;;;;;8358106;28;20174;-68
2022/10/03 13:12:05;;;;;;;6.83;1.53;;;13.60;99.90;;;;;;8351944;28;20207;-67
2022/10/03 13:16:30;;;;;;;11.00;1.67;;;13.30;99.90;;;;;;8356924;28;20201;-68
2022/10/03 13:20:38;;;;;;;11.33;2.03;;;13.00;1.00;;;;;;8356458;28;20223;-67
2022/10/03 13:24:56;;;;;;;8.00;1.40;;;13.00;1.00;;;;;;8353756;28;20193;-68
2022/10/03 13:29:16;;;;;;;5.00;1.20;;;13.00;99.90;;;;;;8359472;28;20201;-68
2022/10/03 13:33:22;;;;;;;7.47;1.70;;;13.10;99.90;;;;;;8374115;28;20209;-69
2022/10/03 13:37:42;;;;;;;7.27;1.40;;;13.20;99.90;;;;;;8351705;28;20261;-70
2022/10/03 13:41:46;;;;;;;6.57;1.63;;;13.30;99.90;;;;;;8366870;28;20190;-67
2022/10/03 13:45:49;;;;;;;7.63;1.80;;;13.20;99.90;;;;;;8367141;28;20220;-69
2022/10/03 13:49:57;;;;;;;10.13;1.90;;;13.10;99.90;;;;;;8361427;28;20185;-68
2022/10/03 13:54:12;;;;;;;3.93;1.30;;;13.00;99.90;;;;;;8368534;28;20194;-70
2022/10/03 13:58:16;;;;;;;8.70;1.83;;;12.80;99.90;;;;;;8360630;28;20189;-68
2022/10/03 14:02:40;;;;;;;7.20;1.40;;;12.60;28.80;;;;;;8365663;28;20190;-69
2022/10/03 14:07:04;;;;;;;10.73;1.70;;;12.70;99.90;;;;;;8360503;28;20185;-69
2022/10/03 14:11:23;;;;;;;9.17;1.40;;;12.70;1.00;;;;;;8348322;28;20685;-68
2022/10/03 14:15:48;;;;;;;4.67;1.30;;;12.70;65.60;;;;;;8382407;28;20246;-68
2022/10/03 14:19:57;;;;;;;11.40;2.10;;;12.70;99.90;;;;;;8363352;28;20185;-68
2022/10/03 14:24:04;;;;;;;4.30;1.63;;;12.70;72.20;;;;;;8358869;28;20193;-68
2022/10/03 14:28:27;;;;;;;6.53;1.70;;;12.70;1.00;;;;;;8367424;28;20191;-68
2022/10/03 14:32:48;;;;;;;6.07;1.50;;;12.80;1.00;;;;;;8348505;28;20215;-68
2022/10/03 14:37:19;;;;;;;5.67;1.70;;;12.90;1.00;;;;;;8357138;28;20217;-69
2022/10/03 14:41:33;;;;;;;6.93;1.80;;;13.00;99.90;;;;;;8351693;28;20181;-68
2022/10/03 14:45:50;;;;;;;9.53;1.90;;;13.00;99.90;;;;;;8365039;28;20239;-69
2022/10/03 14:49:55;;;;;;;8.53;1.73;;;13.10;99.90;;;;;;8363267;28;20264;-69
2022/10/03 14:54:07;;;;;;;4.77;1.23;;;13.10;99.90;;;;;;8359715;28;20204;-69
2022/10/03 14:58:15;;;;;;;10.53;1.70;;;13.10;99.90;;;;;;8363928;28;20196;-69
2022/10/03 15:02:44;;;;;;;5.73;1.30;;;13.20;99.90;;;;;;8352290;28;20194;-69
2022/10/03 15:06:45;;;;;;;6.77;1.33;;;13.10;99.90;;;;;;8361991;28;20247;-69
2022/10/03 15:10:47;;;;;;;7.53;1.60;;;13.10;99.90;;;;;;8356191;28;20182;-69
2022/10/03 15:15:02;;;;;;;4.80;1.40;;;13.20;99.90;;;;;;8348840;28;20208;-69
2022/10/03 15:19:12;;;;;;;7.63;1.40;;;13.20;99.90;;;;;;8361256;28;20196;-69
2022/10/03 15:23:37;;;;;;;7.03;1.30;;;13.20;99.90;;;;;;8357968;28;20281;-69
2022/10/03 15:27:41;;;;;;;3.73;1.13;;;13.10;99.90;;;;;;8357336;28;20261;-69
2022/10/03 15:31:46;;;;;;;12.67;1.93;;;13.10;99.90;;;;;;8354377;28;20243;-71
2022/10/03 15:35:54;;;;;;;6.57;1.70;;;13.10;99.90;;;;;;8351744;28;20684;-69
2022/10/03 15:40:00;;;;;;;6.60;2.13;;;13.10;99.90;;;;;;8358959;28;20216;-70
2022/10/03 15:44:04;;;;;;;6.20;1.57;;;13.00;99.90;;;;;;8348047;28;20178;-70
2022/10/03 15:48:12;;;;;;;9.13;1.20;;;12.90;99.90;;;;;;8363105;28;20185;-72
2022/10/03 15:52:18;;;;;;;7.43;1.27;;;12.90;99.90;;;;;;8360953;28;20200;-70
2022/10/03 15:56:47;;;;;;;5.27;1.43;;;12.80;99.90;;;;;;8379392;28;20218;-70
2022/10/03 16:01:07;;;;;;;5.67;1.30;;;12.80;38.90;;;;;;8360655;28;20255;-70
2022/10/03 16:05:18;;;;;;;6.63;1.67;;;12.70;99.90;;;;;;8352997;28;20197;-69
2022/10/03 16:09:30;;;;;;;7.70;1.70;;;12.70;1.00;;;;;;8361755;28;20182;-69
2022/10/03 16:13:44;;;;;;;6.10;1.27;;;12.50;99.90;;;;;;8344029;28;20209;-70
2022/10/03 16:18:05;;;;;;;10.37;1.67;;;12.40;1.00;;;;;;8357432;28;20201;-69
2022/10/03 16:22:20;;;;;;;6.73;1.57;;;12.30;74.80;;;;;;8354107;28;20585;-69
2022/10/03 16:26:26;;;;;;;15.50;6.10;;;12.10;1.00;;;;;;8350937;28;20188;-66
2022/10/03 16:30:55;;;;;;;6.77;3.10;;;11.90;26.10;;;;;;8369666;28;20194;-66
2022/10/03 16:35:02;;;;;;;8.33;3.20;;;11.80;99.90;;;;;;8357091;28;20298;-68
2022/10/03 16:39:05;;;;;;;12.53;2.40;;;11.70;99.90;;;;;;8368969;28;20244;-69
2022/10/03 16:43:08;;;;;;;5.97;2.20;;;11.50;99.90;;;;;;8360749;28;20192;-68
2022/10/03 16:47:10;;;;;;;6.27;3.40;;;11.40;99.90;;;;;;8356951;28;20214;-69
2022/10/03 16:51:31;;;;;;;8.23;2.17;;;11.40;99.90;;;;;;8357735;28;20185;-68
2022/10/03 16:55:44;;;;;;;10.70;2.10;;;11.30;99.90;;;;;;8355746;28;20244;-69
2022/10/03 16:59:50;;;;;;;7.87;1.87;;;11.30;99.90;;;;;;8350448;28;20181;-69
2022/10/03 17:04:09;;;;;;;9.17;2.33;;;11.20;99.90;;;;;;8371873;28;20251;-69
2022/10/03 17:08:13;;;;;;;9.00;2.00;;;11.20;99.90;;;;;;8358988;28;20563;-68
2022/10/03 17:12:37;;;;;;;4.90;1.87;;;11.20;99.90;;;;;;8350718;28;20197;-68
2022/10/03 17:17:03;;;;;;;5.43;2.03;;;11.20;99.90;;;;;;8358789;28;20202;-68
2022/10/03 17:21:17;;;;;;;9.63;2.60;;;11.30;99.90;;;;;;8357961;28;20586;-68
2022/10/03 17:25:17;;;;;;;5.07;2.10;;;11.30;99.90;;;;;;8349715;28;20280;-68
2022/10/03 17:29:22;;;;;;;11.83;3.10;;;11.40;99.90;;;;;;8360293;28;20182;-68
2022/10/03 17:33:47;;;;;;;9.83;4.70;;;11.40;99.90;;;;;;8367073;28;20181;-67
2022/10/03 17:38:09;;;;;;;9.50;2.57;;;11.30;99.90;;;;;;8360686;28;20172;-66
2022/10/03 17:42:32;;;;;;;6.33;3.00;;;11.10;99.90;;;;;;8360855;28;20244;-69
2022/10/03 17:46:40;;;;;;;11.00;3.10;;;11.10;99.90;;;;;;8362685;28;20255;-67
2022/10/03 17:51:01;;;;;;;10.43;3.30;;;11.00;99.90;;;;;;8359523;28;20220;-65
2022/10/03 17:55:05;;;;;;;9.07;2.70;;;11.00;99.90;;;;;;8363714;28;20223;-71
2022/10/03 17:59:14;;;;;;;6.80;3.00;;;11.00;99.90;;;;;;8356862;28;20231;-66
2022/10/03 18:03:28;;;;;;;11.90;3.70;;;11.00;99.90;;;;;;8360449;28;20219;-66
2022/10/03 18:07:29;;;;;;;6.63;3.20;;;11.00;99.90;;;;;;8361258;28;20185;-67
2022/10/03 18:11:36;;;;;;;7.27;2.67;;;11.00;99.90;;;;;;8358855;28;20185;-67
2022/10/03 18:15:59;;;;;;;9.43;2.47;;;10.90;99.90;;;;;;8350836;28;20338;-66
2022/10/03 18:20:25;;;;;;;8.77;3.87;;;10.90;99.90;;;;;;8358070;28;20247;-66
2022/10/03 18:24:51;;;;;;;8.00;3.03;;;10.90;99.90;;;;;;8360857;28;20223;-66
2022/10/03 18:29:17;;;;;;;8.10;2.87;;;10.90;99.90;;;;;;8350862;28;20284;-68
2022/10/03 18:33:33;;;;;;;6.70;3.23;;;10.90;99.90;;;;;;8367663;28;20303;-67
2022/10/03 18:37:40;;;;;;;10.80;3.47;;;10.90;99.90;;;;;;8374108;28;20273;-67
2022/10/03 18:41:47;;;;;;;7.80;3.10;;;10.90;99.90;;;;;;8360557;28;20190;-68
2022/10/03 18:46:02;;;;;;;8.20;3.07;;;10.90;99.90;;;;;;8345769;28;20272;-68
2022/10/03 18:50:16;;;;;;;11.00;3.07;;;10.90;99.90;;;;;;8359334;28;20195;-68
2022/10/03 18:54:45;;;;;;;8.90;3.40;;;10.90;99.90;;;;;;8362814;28;20197;-69
2022/10/03 18:59:07;;;;;;;9.97;3.30;;;11.00;99.90;;;;;;8360866;28;20272;-68
2022/10/03 19:03:15;;;;;;;14.23;2.90;;;11.00;99.90;;;;;;8355838;28;20193;-67
2022/10/03 19:07:26;;;;;;;9.17;3.10;;;11.00;99.90;;;;;;8355468;28;20188;-69
2022/10/03 19:11:46;;;;;;;7.03;2.90;;;11.00;99.90;;;;;;8353099;28;20213;-67
2022/10/03 19:16:20;;;;;;;10.47;3.20;;;11.00;99.90;;;;;;8358533;28;20215;-69
2022/10/03 19:20:36;;;;;;;7.13;2.77;;;11.00;99.90;;;;;;8357434;28;20226;-68
2022/10/03 19:24:43;;;;;;;7.47;2.73;;;11.00;99.90;;;;;;8355644;28;20188;-68
2022/10/03 19:28:49;;;;;;;12.17;2.47;;;11.00;99.90;;;;;;8357463;28;20192;-68
2022/10/03 19:33:03;;;;;;;11.47;2.77;;;11.00;99.90;;;;;;8357839;28;20218;-69
2022/10/03 19:37:15;;;;;;;9.80;2.30;;;10.90;99.90;;;;;;8356076;28;20212;-68
2022/10/03 19:41:51;;;;;;;9.43;2.23;;;10.90;99.90;;;;;;8341703;28;20179;-68
2022/10/03 19:46:03;;;;;;;6.87;2.23;;;10.90;99.90;;;;;;8358447;28;20194;-70
2022/10/03 19:50:36;;;;;;;9.70;2.27;;;10.90;99.90;;;;;;8359781;28;20276;-69
2022/10/03 19:54:49;;;;;;;10.33;2.93;;;10.70;99.90;;;;;;8360262;28;20255;-68
2022/10/03 19:59:15;;;;;;;9.70;2.30;;;10.60;99.90;;;;;;8362011;28;20189;-69
2022/10/03 20:03:31;;;;;;;11.30;2.57;;;10.50;99.90;;;;;;8339022;28;20204;-68
2022/10/03 20:07:42;;;;;;;11.73;3.00;;;10.50;99.90;;;;;;8361034;28;20177;-66
2022/10/03 20:12:06;;;;;;;4.37;2.27;;;10.50;99.90;;;;;;8356021;28;20227;-67
2022/10/03 20:16:13;;;;;;;9.13;2.30;;;10.40;99.90;;;;;;8358937;28;20552;-67
2022/10/03 20:20:23;;;;;;;14.23;2.90;;;10.40;99.90;;;;;;8377209;28;20194;-67
2022/10/03 20:24:32;;;;;;;8.77;2.50;;;10.40;99.90;;;;;;8342848;28;20196;-67
2022/10/03 20:29:01;;;;;;;6.13;2.07;;;10.40;99.90;;;;;;8350740;28;20205;-67
2022/10/03 20:33:04;;;;;;;8.53;3.03;;;10.50;99.90;;;;;;8362356;28;20185;-67
2022/10/03 20:37:38;;;;;;;6.60;2.33;;;10.60;99.90;;;;;;8357164;28;20302;-67
2022/10/03 20:41:45;;;;;;;10.97;2.20;;;10.60;99.90;;;;;;8355949;28;20184;-68
2022/10/03 20:45:57;;;;;;;5.87;1.80;;;10.60;99.90;;;;;;8366873;28;20280;-67
2022/10/03 20:50:20;;;;;;;7.83;2.50;;;10.60;99.90;;;;;;8361857;28;20186;-67
2022/10/03 20:54:24;;;;;;;8.23;2.73;;;10.60;99.90;;;;;;8346566;28;20232;-68
2022/10/03 20:58:42;;;;;;;7.43;2.20;;;10.70;99.90;;;;;;8359116;28;20192;-69
2022/10/03 21:02:51;;;;;;;9.50;2.60;;;10.70;99.90;;;;;;8363555;28;20202;-68
2022/10/03 21:07:11;;;;;;;7.77;2.23;;;10.70;99.90;;;;;;8363001;28;20188;-69
2022/10/03 21:11:20;;;;;;;11.03;2.30;;;10.70;99.90;;;;;;8360608;28;20198;-69
2022/10/03 21:15:38;;;;;;;6.90;2.50;;;10.60;99.90;;;;;;8365552;28;20314;-68
2022/10/03 21:19:54;;;;;;;8.70;2.63;;;10.70;99.90;;;;;;8358435;28;20192;-68
2022/10/03 21:24:01;;;;;;;7.00;2.80;;;10.70;99.90;;;;;;8362289;28;20643;-68
2022/10/03 21:28:03;;;;;;;7.77;2.40;;;10.70;99.90;;;;;;8361673;28;20196;-69
2022/10/03 21:32:28;;;;;;;7.77;2.63;;;10.70;99.90;;;;;;8357945;28;20277;-69
2022/10/03 21:36:37;;;;;;;8.17;2.33;;;10.70;99.90;;;;;;8373730;28;20212;-68
2022/10/03 21:40:51;;;;;;;9.10;2.50;;;10.70;99.90;;;;;;8361607;28;20189;-68
2022/10/03 21:45:25;;;;;;;5.97;2.50;;;10.70;99.90;;;;;;8365730;28;20198;-68
2022/10/03 21:49:59;;;;;;;7.67;2.27;;;10.70;99.90;;;;;;8358845;28;20313;-68
2022/10/03 21:54:12;;;;;;;5.40;2.13;;;10.60;99.90;;;;;;8355003;28;20211;-68
2022/10/03 21:58:38;;;;;;;7.23;2.50;;;10.60;99.90;;;;;;8362618;28;20216;-69
2022/10/03 22:02:51;;;;;;;7.23;2.47;;;10.60;99.90;;;;;;8350474;28;20211;-68
2022/10/03 22:07:01;;;;;;;11.37;1.97;;;10.60;99.90;;;;;;8377828;28;20218;-67
2022/10/03 22:11:25;;;;;;;12.10;2.03;;;10.60;99.90;;;;;;8362644;28;20194;-69
2022/10/03 22:15:35;;;;;;;5.43;2.10;;;10.50;99.90;;;;;;8353171;28;20217;-68
2022/10/03 22:20:04;;;;;;;4.17;1.70;;;10.50;99.90;;;;;;8366662;28;20191;-69
2022/10/03 22:24:05;;;;;;;7.67;2.47;;;10.40;99.90;;;;;;8361339;28;20199;-69
2022/10/03 22:28:31;;;;;;;7.10;2.47;;;10.30;99.90;;;;;;8357316;28;20175;-68
2022/10/03 22:32:56;;;;;;;8.23;2.20;;;10.30;99.90;;;;;;8361035;28;20191;-68
2022/10/03 22:36:58;;;;;;;6.63;2.20;;;10.30;99.90;;;;;;8355565;28;20215;-69
2022/10/03 22:41:04;;;;;;;9.67;2.27;;;10.40;99.90;;;;;;8362593;28;20184;-69